sensor_id;sensor_type;location;lat;lon;timestamp;P1;durP1;ratioP1;P2;durP2;ratioP2
3193;SDS011;1608;50.860;13.466;2022-12-07T00:00:18;29.90;;;13.90;;
3193;SDS011;1608;50.860;13.466;2022-12-07T00:02:45;27.10;;;14.60;;
3193;SDS011;1608;50.860;13.466;2022-12-07T00:05:12;21.17;;;11.23;;
3193;SDS011;1608;50.860;13.466;2022-12-07T00:07:39;27.13;;;14.37;;
3193;SDS011;1608;50.860;13.466;2022-12-07T00:10:07;28.97;;;14.17;;
3193;SDS011;1608;50.860;13.466;2022-12-07T00:12:34;27.40;;;14.70;;
3193;SDS011;1608;50.860;13.466;2022-12-07T00:15:01;23.03;;;11.57;;
3193;SDS011;1608;50.860;13.466;2022-12-07T00:17:28;20.67;;;11.53;;
3193;SDS011;1608;50.860;13.466;2022-12-07T00:19:55;21.63;;;11.43;;
3193;SDS011;1608;50.860;13.466;2022-12-07T00:22:22;15.20;;;10.17;;
3193;SDS011;1608;50.860;13.466;2022-12-07T00:24:48;26.97;;;11.80;;
3193;SDS011;1608;50.860;13.466;2022-12-07T00:27:17;19.60;;;9.60;;
3193;SDS011;1608;50.860;13.466;2022-12-07T00:29:43;21.20;;;9.50;;
3193;SDS011;1608;50.860;13.466;2022-12-07T00:32:10;16.27;;;9.67;;
3193;SDS011;1608;50.860;13.466;2022-12-07T00:34:37;16.83;;;9.63;;
3193;SDS011;1608;50.860;13.466;2022-12-07T00:37:04;18.07;;;8.57;;
3193;SDS011;1608;50.860;13.466;2022-12-07T00:39:31;15.93;;;8.17;;
3193;SDS011;1608;50.860;13.466;2022-12-07T00:41:57;18.93;;;9.00;;
3193;SDS011;1608;50.860;13.466;2022-12-07T00:44:26;18.30;;;9.00;;
3193;SDS011;1608;50.860;13.466;2022-12-07T00:46:52;14.17;;;8.10;;
3193;SDS011;1608;50.860;13.466;2022-12-07T00:49:20;22.63;;;9.50;;
3193;SDS011;1608;50.860;13.466;2022-12-07T00:51:47;20.00;;;7.63;;
3193;SDS011;1608;50.860;13.466;2022-12-07T00:54:14;21.37;;;9.27;;
3193;SDS011;1608;50.860;13.466;2022-12-07T00:56:41;18.27;;;8.17;;
3193;SDS011;1608;50.860;13.466;2022-12-07T00:59:10;19.57;;;9.40;;
3193;SDS011;1608;50.860;13.466;2022-12-07T01:01:41;13.60;;;8.07;;
3193;SDS011;1608;50.860;13.466;2022-12-07T01:04:08;17.03;;;8.20;;
3193;SDS011;1608;50.860;13.466;2022-12-07T01:06:35;13.67;;;7.33;;
3193;SDS011;1608;50.860;13.466;2022-12-07T01:09:02;14.10;;;8.30;;
3193;SDS011;1608;50.860;13.466;2022-12-07T01:11:29;15.10;;;7.97;;
3193;SDS011;1608;50.860;13.466;2022-12-07T01:13:57;12.50;;;7.37;;
3193;SDS011;1608;50.860;13.466;2022-12-07T01:16:25;13.73;;;7.63;;
3193;SDS011;1608;50.860;13.466;2022-12-07T01:18:56;13.40;;;7.90;;
3193;SDS011;1608;50.860;13.466;2022-12-07T01:21:24;30.23;;;9.10;;
3193;SDS011;1608;50.860;13.466;2022-12-07T01:23:52;20.30;;;8.40;;
3193;SDS011;1608;50.860;13.466;2022-12-07T01:26:20;15.73;;;9.30;;
3193;SDS011;1608;50.860;13.466;2022-12-07T01:28:48;17.23;;;7.27;;
3193;SDS011;1608;50.860;13.466;2022-12-07T01:31:16;8.90;;;5.93;;
3193;SDS011;1608;50.860;13.466;2022-12-07T01:33:44;10.67;;;5.70;;
3193;SDS011;1608;50.860;13.466;2022-12-07T01:36:14;10.53;;;6.03;;
3193;SDS011;1608;50.860;13.466;2022-12-07T01:38:43;14.17;;;7.50;;
3193;SDS011;1608;50.860;13.466;2022-12-07T01:41:10;10.40;;;7.13;;
3193;SDS011;1608;50.860;13.466;2022-12-07T01:44:06;11.10;;;6.30;;
3193;SDS011;1608;50.860;13.466;2022-12-07T01:46:36;15.40;;;9.20;;
3193;SDS011;1608;50.860;13.466;2022-12-07T01:49:03;13.97;;;7.00;;
3193;SDS011;1608;50.860;13.466;2022-12-07T01:51:33;21.83;;;9.07;;
3193;SDS011;1608;50.860;13.466;2022-12-07T01:54:03;17.00;;;8.00;;
3193;SDS011;1608;50.860;13.466;2022-12-07T01:56:30;15.27;;;8.83;;
3193;SDS011;1608;50.860;13.466;2022-12-07T01:58:58;27.73;;;12.90;;
3193;SDS011;1608;50.860;13.466;2022-12-07T02:01:27;24.20;;;11.43;;
3193;SDS011;1608;50.860;13.466;2022-12-07T02:03:54;25.83;;;12.57;;
3193;SDS011;1608;50.860;13.466;2022-12-07T02:06:22;24.77;;;13.67;;
3193;SDS011;1608;50.860;13.466;2022-12-07T02:08:53;21.30;;;10.70;;
3193;SDS011;1608;50.860;13.466;2022-12-07T02:11:20;19.80;;;11.40;;
3193;SDS011;1608;50.860;13.466;2022-12-07T02:13:47;20.47;;;11.87;;
3193;SDS011;1608;50.860;13.466;2022-12-07T02:16:24;28.23;;;12.40;;
3193;SDS011;1608;50.860;13.466;2022-12-07T02:18:57;28.03;;;13.53;;
3193;SDS011;1608;50.860;13.466;2022-12-07T02:21:35;23.70;;;13.00;;
3193;SDS011;1608;50.860;13.466;2022-12-07T02:24:14;27.70;;;13.30;;
3193;SDS011;1608;50.860;13.466;2022-12-07T02:32:23;23.13;;;12.63;;
3193;SDS011;1608;50.860;13.466;2022-12-07T02:34:54;25.70;;;12.13;;
3193;SDS011;1608;50.860;13.466;2022-12-07T02:37:29;23.60;;;12.30;;
3193;SDS011;1608;50.860;13.466;2022-12-07T02:40:04;21.30;;;12.23;;
3193;SDS011;1608;50.860;13.466;2022-12-07T02:42:36;28.03;;;13.77;;
3193;SDS011;1608;50.860;13.466;2022-12-07T02:45:07;23.00;;;12.60;;
3193;SDS011;1608;50.860;13.466;2022-12-07T02:47:38;26.30;;;11.77;;
3193;SDS011;1608;50.860;13.466;2022-12-07T02:50:07;19.90;;;10.73;;
3193;SDS011;1608;50.860;13.466;2022-12-07T02:52:34;24.50;;;11.97;;
3193;SDS011;1608;50.860;13.466;2022-12-07T02:55:01;22.60;;;10.80;;
3193;SDS011;1608;50.860;13.466;2022-12-07T02:57:35;20.53;;;10.97;;
3193;SDS011;1608;50.860;13.466;2022-12-07T03:00:16;17.43;;;11.53;;
3193;SDS011;1608;50.860;13.466;2022-12-07T03:02:53;18.33;;;10.23;;
3193;SDS011;1608;50.860;13.466;2022-12-07T03:08:20;20.10;;;10.13;;
3193;SDS011;1608;50.860;13.466;2022-12-07T03:10:56;17.80;;;10.23;;
3193;SDS011;1608;50.860;13.466;2022-12-07T03:13:25;20.73;;;10.80;;
3193;SDS011;1608;50.860;13.466;2022-12-07T03:15:58;22.53;;;11.47;;
3193;SDS011;1608;50.860;13.466;2022-12-07T03:18:33;16.30;;;9.93;;
3193;SDS011;1608;50.860;13.466;2022-12-07T03:21:05;17.20;;;10.57;;
3193;SDS011;1608;50.860;13.466;2022-12-07T03:23:35;18.13;;;9.67;;
3193;SDS011;1608;50.860;13.466;2022-12-07T03:26:05;23.17;;;11.73;;
3193;SDS011;1608;50.860;13.466;2022-12-07T03:28:36;19.00;;;9.50;;
3193;SDS011;1608;50.860;13.466;2022-12-07T03:31:09;19.97;;;9.80;;
3193;SDS011;1608;50.860;13.466;2022-12-07T03:33:44;16.97;;;9.33;;
3193;SDS011;1608;50.860;13.466;2022-12-07T03:36:18;19.53;;;9.17;;
3193;SDS011;1608;50.860;13.466;2022-12-07T03:38:50;18.03;;;10.57;;
3193;SDS011;1608;50.860;13.466;2022-12-07T03:41:24;26.33;;;11.70;;
3193;SDS011;1608;50.860;13.466;2022-12-07T03:43:53;20.83;;;9.70;;
3193;SDS011;1608;50.860;13.466;2022-12-07T03:46:24;19.30;;;10.77;;
3193;SDS011;1608;50.860;13.466;2022-12-07T03:49:02;16.20;;;9.07;;
3193;SDS011;1608;50.860;13.466;2022-12-07T03:51:34;15.77;;;9.80;;
3193;SDS011;1608;50.860;13.466;2022-12-07T03:54:07;18.30;;;8.70;;
3193;SDS011;1608;50.860;13.466;2022-12-07T03:56:39;14.27;;;9.60;;
3193;SDS011;1608;50.860;13.466;2022-12-07T03:59:08;14.77;;;8.33;;
3193;SDS011;1608;50.860;13.466;2022-12-07T04:01:36;19.83;;;8.10;;
3193;SDS011;1608;50.860;13.466;2022-12-07T04:04:05;18.17;;;9.67;;
3193;SDS011;1608;50.860;13.466;2022-12-07T04:06:31;16.70;;;9.30;;
3193;SDS011;1608;50.860;13.466;2022-12-07T04:08:58;16.00;;;9.20;;
3193;SDS011;1608;50.860;13.466;2022-12-07T04:11:25;17.07;;;8.23;;
3193;SDS011;1608;50.860;13.466;2022-12-07T04:13:52;14.27;;;8.03;;
3193;SDS011;1608;50.860;13.466;2022-12-07T04:16:36;16.50;;;7.90;;
3193;SDS011;1608;50.860;13.466;2022-12-07T04:19:04;12.37;;;7.07;;
3193;SDS011;1608;50.860;13.466;2022-12-07T04:21:31;12.70;;;6.40;;
3193;SDS011;1608;50.860;13.466;2022-12-07T04:23:58;13.90;;;6.50;;
3193;SDS011;1608;50.860;13.466;2022-12-07T04:26:24;16.00;;;7.10;;
3193;SDS011;1608;50.860;13.466;2022-12-07T04:28:51;12.93;;;8.50;;
3193;SDS011;1608;50.860;13.466;2022-12-07T04:31:18;14.70;;;6.80;;
3193;SDS011;1608;50.860;13.466;2022-12-07T04:33:45;9.43;;;5.37;;
3193;SDS011;1608;50.860;13.466;2022-12-07T04:36:13;12.73;;;5.63;;
3193;SDS011;1608;50.860;13.466;2022-12-07T04:38:40;10.97;;;7.43;;
3193;SDS011;1608;50.860;13.466;2022-12-07T04:41:07;15.57;;;7.60;;
3193;SDS011;1608;50.860;13.466;2022-12-07T04:43:35;13.40;;;6.80;;
3193;SDS011;1608;50.860;13.466;2022-12-07T04:46:02;9.60;;;5.70;;
3193;SDS011;1608;50.860;13.466;2022-12-07T04:48:29;13.17;;;6.30;;
3193;SDS011;1608;50.860;13.466;2022-12-07T04:50:56;11.50;;;7.03;;
3193;SDS011;1608;50.860;13.466;2022-12-07T04:53:24;12.37;;;6.77;;
3193;SDS011;1608;50.860;13.466;2022-12-07T04:55:51;13.40;;;6.50;;
3193;SDS011;1608;50.860;13.466;2022-12-07T04:58:18;13.17;;;6.30;;
3193;SDS011;1608;50.860;13.466;2022-12-07T05:00:44;13.97;;;6.87;;
3193;SDS011;1608;50.860;13.466;2022-12-07T05:03:11;13.83;;;7.00;;
3193;SDS011;1608;50.860;13.466;2022-12-07T05:05:39;10.20;;;5.70;;
3193;SDS011;1608;50.860;13.466;2022-12-07T05:08:06;12.00;;;7.20;;
3193;SDS011;1608;50.860;13.466;2022-12-07T05:10:34;10.50;;;6.10;;
3193;SDS011;1608;50.860;13.466;2022-12-07T05:13:01;8.67;;;5.50;;
3193;SDS011;1608;50.860;13.466;2022-12-07T05:15:28;19.57;;;8.37;;
3193;SDS011;1608;50.860;13.466;2022-12-07T05:17:55;11.80;;;6.13;;
3193;SDS011;1608;50.860;13.466;2022-12-07T05:20:22;9.23;;;5.97;;
3193;SDS011;1608;50.860;13.466;2022-12-07T05:22:48;14.50;;;7.07;;
3193;SDS011;1608;50.860;13.466;2022-12-07T05:25:15;12.00;;;6.70;;
3193;SDS011;1608;50.860;13.466;2022-12-07T05:27:44;14.97;;;6.00;;
3193;SDS011;1608;50.860;13.466;2022-12-07T05:30:11;13.53;;;6.27;;
3193;SDS011;1608;50.860;13.466;2022-12-07T05:32:38;18.90;;;6.93;;
3193;SDS011;1608;50.860;13.466;2022-12-07T05:35:05;10.43;;;6.53;;
3193;SDS011;1608;50.860;13.466;2022-12-07T05:37:32;9.30;;;5.13;;
3193;SDS011;1608;50.860;13.466;2022-12-07T05:39:59;9.27;;;4.80;;
3193;SDS011;1608;50.860;13.466;2022-12-07T05:42:26;15.20;;;5.33;;
3193;SDS011;1608;50.860;13.466;2022-12-07T05:44:54;9.40;;;5.00;;
3193;SDS011;1608;50.860;13.466;2022-12-07T05:47:21;8.20;;;5.20;;
3193;SDS011;1608;50.860;13.466;2022-12-07T05:49:48;5.53;;;3.77;;
3193;SDS011;1608;50.860;13.466;2022-12-07T05:52:14;9.80;;;5.10;;
3193;SDS011;1608;50.860;13.466;2022-12-07T05:54:42;8.40;;;4.63;;
3193;SDS011;1608;50.860;13.466;2022-12-07T05:57:08;8.43;;;5.23;;
3193;SDS011;1608;50.860;13.466;2022-12-07T05:59:35;8.53;;;5.43;;
3193;SDS011;1608;50.860;13.466;2022-12-07T06:02:03;8.20;;;4.87;;
3193;SDS011;1608;50.860;13.466;2022-12-07T06:04:32;9.23;;;5.03;;
3193;SDS011;1608;50.860;13.466;2022-12-07T06:07:00;12.80;;;5.23;;
3193;SDS011;1608;50.860;13.466;2022-12-07T06:09:28;6.60;;;5.17;;
3193;SDS011;1608;50.860;13.466;2022-12-07T06:11:54;6.47;;;4.17;;
3193;SDS011;1608;50.860;13.466;2022-12-07T06:14:39;9.40;;;4.80;;
3193;SDS011;1608;50.860;13.466;2022-12-07T06:17:08;7.33;;;5.47;;
3193;SDS011;1608;50.860;13.466;2022-12-07T06:19:35;8.47;;;4.33;;
3193;SDS011;1608;50.860;13.466;2022-12-07T06:22:02;9.17;;;4.17;;
3193;SDS011;1608;50.860;13.466;2022-12-07T06:24:30;7.93;;;5.53;;
3193;SDS011;1608;50.860;13.466;2022-12-07T06:26:58;8.43;;;6.10;;
3193;SDS011;1608;50.860;13.466;2022-12-07T06:29:25;10.33;;;5.80;;
3193;SDS011;1608;50.860;13.466;2022-12-07T06:31:51;7.23;;;5.13;;
3193;SDS011;1608;50.860;13.466;2022-12-07T06:34:22;8.33;;;5.17;;
3193;SDS011;1608;50.860;13.466;2022-12-07T06:36:50;8.67;;;5.23;;
3193;SDS011;1608;50.860;13.466;2022-12-07T06:39:20;11.70;;;5.67;;
3193;SDS011;1608;50.860;13.466;2022-12-07T06:41:48;9.63;;;5.33;;
3193;SDS011;1608;50.860;13.466;2022-12-07T06:44:16;4.80;;;4.17;;
3193;SDS011;1608;50.860;13.466;2022-12-07T06:46:43;7.90;;;5.40;;
3193;SDS011;1608;50.860;13.466;2022-12-07T06:49:10;11.90;;;4.80;;
3193;SDS011;1608;50.860;13.466;2022-12-07T06:51:39;8.63;;;5.30;;
3193;SDS011;1608;50.860;13.466;2022-12-07T06:54:07;7.57;;;4.83;;
3193;SDS011;1608;50.860;13.466;2022-12-07T06:56:34;7.17;;;4.70;;
3193;SDS011;1608;50.860;13.466;2022-12-07T06:59:00;10.10;;;5.57;;
3193;SDS011;1608;50.860;13.466;2022-12-07T07:01:28;10.17;;;6.30;;
3193;SDS011;1608;50.860;13.466;2022-12-07T07:03:55;9.50;;;5.57;;
3193;SDS011;1608;50.860;13.466;2022-12-07T07:06:21;7.27;;;4.97;;
3193;SDS011;1608;50.860;13.466;2022-12-07T07:08:50;7.40;;;5.03;;
3193;SDS011;1608;50.860;13.466;2022-12-07T07:11:17;8.30;;;4.53;;
3193;SDS011;1608;50.860;13.466;2022-12-07T07:13:44;7.67;;;5.10;;
3193;SDS011;1608;50.860;13.466;2022-12-07T07:16:12;11.33;;;5.97;;
3193;SDS011;1608;50.860;13.466;2022-12-07T07:18:39;8.97;;;5.20;;
3193;SDS011;1608;50.860;13.466;2022-12-07T07:21:05;10.53;;;5.20;;
3193;SDS011;1608;50.860;13.466;2022-12-07T07:23:32;6.00;;;4.47;;
3193;SDS011;1608;50.860;13.466;2022-12-07T07:26:00;9.27;;;4.90;;
3193;SDS011;1608;50.860;13.466;2022-12-07T07:28:27;9.47;;;5.33;;
3193;SDS011;1608;50.860;13.466;2022-12-07T07:30:54;10.53;;;4.87;;
3193;SDS011;1608;50.860;13.466;2022-12-07T07:33:21;6.73;;;5.07;;
3193;SDS011;1608;50.860;13.466;2022-12-07T07:35:47;8.37;;;5.13;;
3193;SDS011;1608;50.860;13.466;2022-12-07T07:38:14;9.33;;;5.37;;
3193;SDS011;1608;50.860;13.466;2022-12-07T07:40:41;9.23;;;5.63;;
3193;SDS011;1608;50.860;13.466;2022-12-07T07:43:09;12.67;;;5.27;;
3193;SDS011;1608;50.860;13.466;2022-12-07T07:45:36;13.17;;;6.87;;
3193;SDS011;1608;50.860;13.466;2022-12-07T07:48:03;13.00;;;7.47;;
3193;SDS011;1608;50.860;13.466;2022-12-07T07:50:30;12.23;;;8.40;;
3193;SDS011;1608;50.860;13.466;2022-12-07T07:52:57;13.27;;;7.47;;
3193;SDS011;1608;50.860;13.466;2022-12-07T07:55:23;15.93;;;9.20;;
3193;SDS011;1608;50.860;13.466;2022-12-07T07:57:50;13.27;;;8.40;;
3193;SDS011;1608;50.860;13.466;2022-12-07T08:00:19;12.87;;;8.20;;
3193;SDS011;1608;50.860;13.466;2022-12-07T08:02:46;18.13;;;9.23;;
3193;SDS011;1608;50.860;13.466;2022-12-07T08:05:13;17.90;;;7.93;;
3193;SDS011;1608;50.860;13.466;2022-12-07T08:07:40;17.77;;;9.17;;
3193;SDS011;1608;50.860;13.466;2022-12-07T08:10:07;13.77;;;7.37;;
3193;SDS011;1608;50.860;13.466;2022-12-07T08:12:37;10.90;;;7.40;;
3193;SDS011;1608;50.860;13.466;2022-12-07T08:15:26;14.20;;;7.00;;
3193;SDS011;1608;50.860;13.466;2022-12-07T08:17:55;12.57;;;7.87;;
3193;SDS011;1608;50.860;13.466;2022-12-07T08:20:22;10.33;;;6.33;;
3193;SDS011;1608;50.860;13.466;2022-12-07T08:22:49;14.70;;;8.10;;
3193;SDS011;1608;50.860;13.466;2022-12-07T08:25:16;11.90;;;6.80;;
3193;SDS011;1608;50.860;13.466;2022-12-07T08:27:43;15.60;;;8.20;;
3193;SDS011;1608;50.860;13.466;2022-12-07T08:30:10;11.73;;;8.40;;
3193;SDS011;1608;50.860;13.466;2022-12-07T08:32:38;13.50;;;8.87;;
3193;SDS011;1608;50.860;13.466;2022-12-07T08:35:06;14.00;;;9.50;;
3193;SDS011;1608;50.860;13.466;2022-12-07T08:37:33;19.13;;;9.47;;
3193;SDS011;1608;50.860;13.466;2022-12-07T08:40:00;14.53;;;8.90;;
3193;SDS011;1608;50.860;13.466;2022-12-07T08:42:27;17.10;;;9.60;;
3193;SDS011;1608;50.860;13.466;2022-12-07T08:44:55;14.63;;;7.10;;
3193;SDS011;1608;50.860;13.466;2022-12-07T08:47:23;15.37;;;8.80;;
3193;SDS011;1608;50.860;13.466;2022-12-07T08:49:52;14.07;;;8.30;;
3193;SDS011;1608;50.860;13.466;2022-12-07T08:52:20;11.50;;;6.30;;
3193;SDS011;1608;50.860;13.466;2022-12-07T08:54:47;13.80;;;7.73;;
3193;SDS011;1608;50.860;13.466;2022-12-07T08:57:14;14.63;;;8.87;;
3193;SDS011;1608;50.860;13.466;2022-12-07T08:59:41;11.10;;;7.70;;
3193;SDS011;1608;50.860;13.466;2022-12-07T09:02:08;12.10;;;7.30;;
3193;SDS011;1608;50.860;13.466;2022-12-07T09:04:35;15.63;;;7.13;;
3193;SDS011;1608;50.860;13.466;2022-12-07T09:07:03;9.60;;;6.03;;
3193;SDS011;1608;50.860;13.466;2022-12-07T09:09:31;14.60;;;8.17;;
3193;SDS011;1608;50.860;13.466;2022-12-07T09:11:58;12.67;;;8.37;;
3193;SDS011;1608;50.860;13.466;2022-12-07T09:14:25;14.33;;;7.60;;
3193;SDS011;1608;50.860;13.466;2022-12-07T09:16:51;19.33;;;8.90;;
3193;SDS011;1608;50.860;13.466;2022-12-07T09:19:18;11.50;;;7.80;;
3193;SDS011;1608;50.860;13.466;2022-12-07T09:21:45;12.67;;;6.03;;
3193;SDS011;1608;50.860;13.466;2022-12-07T09:24:13;10.70;;;6.53;;
3193;SDS011;1608;50.860;13.466;2022-12-07T09:26:40;11.80;;;7.13;;
3193;SDS011;1608;50.860;13.466;2022-12-07T09:29:07;11.30;;;7.23;;
3193;SDS011;1608;50.860;13.466;2022-12-07T09:31:35;10.17;;;6.07;;
3193;SDS011;1608;50.860;13.466;2022-12-07T09:34:02;10.33;;;6.77;;
3193;SDS011;1608;50.860;13.466;2022-12-07T09:36:30;13.73;;;6.07;;
3193;SDS011;1608;50.860;13.466;2022-12-07T09:38:57;10.80;;;5.90;;
3193;SDS011;1608;50.860;13.466;2022-12-07T09:41:25;9.43;;;5.53;;
3193;SDS011;1608;50.860;13.466;2022-12-07T09:43:57;10.63;;;5.90;;
3193;SDS011;1608;50.860;13.466;2022-12-07T09:46:30;11.53;;;6.60;;
3193;SDS011;1608;50.860;13.466;2022-12-07T09:49:02;9.57;;;5.17;;
3193;SDS011;1608;50.860;13.466;2022-12-07T09:51:30;10.30;;;5.27;;
3193;SDS011;1608;50.860;13.466;2022-12-07T09:53:58;15.30;;;5.77;;
3193;SDS011;1608;50.860;13.466;2022-12-07T09:56:29;8.97;;;6.63;;
3193;SDS011;1608;50.860;13.466;2022-12-07T09:58:58;6.17;;;4.80;;
3193;SDS011;1608;50.860;13.466;2022-12-07T10:01:27;7.17;;;5.70;;
3193;SDS011;1608;50.860;13.466;2022-12-07T10:03:58;9.43;;;6.20;;
3193;SDS011;1608;50.860;13.466;2022-12-07T10:06:33;8.07;;;6.00;;
3193;SDS011;1608;50.860;13.466;2022-12-07T10:08:59;9.40;;;4.77;;
3193;SDS011;1608;50.860;13.466;2022-12-07T10:11:28;7.70;;;5.70;;
3193;SDS011;1608;50.860;13.466;2022-12-07T10:13:55;6.50;;;4.80;;
3193;SDS011;1608;50.860;13.466;2022-12-07T10:16:38;8.57;;;5.20;;
3193;SDS011;1608;50.860;13.466;2022-12-07T10:22:00;10.93;;;5.30;;
3193;SDS011;1608;50.860;13.466;2022-12-07T10:24:30;8.10;;;4.57;;
3193;SDS011;1608;50.860;13.466;2022-12-07T10:26:58;10.43;;;5.50;;
3193;SDS011;1608;50.860;13.466;2022-12-07T10:29:28;10.87;;;5.30;;
3193;SDS011;1608;50.860;13.466;2022-12-07T10:31:56;7.70;;;5.13;;
3193;SDS011;1608;50.860;13.466;2022-12-07T10:34:25;8.87;;;5.27;;
3193;SDS011;1608;50.860;13.466;2022-12-07T10:37:06;9.00;;;5.70;;
3193;SDS011;1608;50.860;13.466;2022-12-07T10:39:41;9.87;;;5.90;;
3193;SDS011;1608;50.860;13.466;2022-12-07T10:42:16;13.20;;;7.50;;
3193;SDS011;1608;50.860;13.466;2022-12-07T10:44:44;13.07;;;7.07;;
3193;SDS011;1608;50.860;13.466;2022-12-07T10:47:19;16.30;;;6.23;;
3193;SDS011;1608;50.860;13.466;2022-12-07T10:53:06;7.90;;;5.63;;
3193;SDS011;1608;50.860;13.466;2022-12-07T10:55:46;8.57;;;6.40;;
3193;SDS011;1608;50.860;13.466;2022-12-07T10:58:34;15.73;;;5.90;;
3193;SDS011;1608;50.860;13.466;2022-12-07T11:01:12;7.93;;;6.13;;
3193;SDS011;1608;50.860;13.466;2022-12-07T11:03:49;9.87;;;6.00;;
3193;SDS011;1608;50.860;13.466;2022-12-07T11:06:34;10.93;;;5.40;;
3193;SDS011;1608;50.860;13.466;2022-12-07T11:09:20;11.90;;;6.83;;
3193;SDS011;1608;50.860;13.466;2022-12-07T11:11:59;10.60;;;5.53;;
3193;SDS011;1608;50.860;13.466;2022-12-07T11:14:35;9.50;;;5.40;;
3193;SDS011;1608;50.860;13.466;2022-12-07T11:17:12;15.53;;;6.00;;
3193;SDS011;1608;50.860;13.466;2022-12-07T11:19:49;11.53;;;6.30;;
3193;SDS011;1608;50.860;13.466;2022-12-07T11:22:26;10.60;;;5.87;;
3193;SDS011;1608;50.860;13.466;2022-12-07T11:25:13;9.57;;;5.10;;
3193;SDS011;1608;50.860;13.466;2022-12-07T11:27:47;11.30;;;5.40;;
3193;SDS011;1608;50.860;13.466;2022-12-07T11:30:21;12.23;;;6.10;;
3193;SDS011;1608;50.860;13.466;2022-12-07T11:32:57;11.37;;;6.70;;
3193;SDS011;1608;50.860;13.466;2022-12-07T11:35:36;7.60;;;5.67;;
3193;SDS011;1608;50.860;13.466;2022-12-07T11:38:12;10.30;;;5.50;;
3193;SDS011;1608;50.860;13.466;2022-12-07T11:40:43;7.70;;;5.47;;
3193;SDS011;1608;50.860;13.466;2022-12-07T11:43:16;10.33;;;4.97;;
3193;SDS011;1608;50.860;13.466;2022-12-07T11:45:50;10.83;;;6.43;;
3193;SDS011;1608;50.860;13.466;2022-12-07T11:48:24;7.60;;;5.10;;
3193;SDS011;1608;50.860;13.466;2022-12-07T11:50:58;8.30;;;5.17;;
3193;SDS011;1608;50.860;13.466;2022-12-07T11:53:29;9.00;;;4.70;;
3193;SDS011;1608;50.860;13.466;2022-12-07T11:56:02;4.63;;;3.40;;
3193;SDS011;1608;50.860;13.466;2022-12-07T11:58:42;6.20;;;4.00;;
3193;SDS011;1608;50.860;13.466;2022-12-07T12:01:17;8.07;;;5.27;;
3193;SDS011;1608;50.860;13.466;2022-12-07T12:04:01;6.30;;;3.97;;
3193;SDS011;1608;50.860;13.466;2022-12-07T12:06:33;7.13;;;4.60;;
3193;SDS011;1608;50.860;13.466;2022-12-07T12:09:02;5.47;;;3.80;;
3193;SDS011;1608;50.860;13.466;2022-12-07T12:11:39;6.50;;;3.90;;
3193;SDS011;1608;50.860;13.466;2022-12-07T12:14:33;12.50;;;5.10;;
3193;SDS011;1608;50.860;13.466;2022-12-07T12:17:20;9.00;;;4.53;;
3193;SDS011;1608;50.860;13.466;2022-12-07T12:20:17;4.90;;;3.37;;
3193;SDS011;1608;50.860;13.466;2022-12-07T12:22:50;8.93;;;6.47;;
3193;SDS011;1608;50.860;13.466;2022-12-07T12:25:21;11.43;;;4.60;;
3193;SDS011;1608;50.860;13.466;2022-12-07T12:27:50;5.10;;;3.07;;
3193;SDS011;1608;50.860;13.466;2022-12-07T12:30:33;7.20;;;4.40;;
3193;SDS011;1608;50.860;13.466;2022-12-07T12:33:04;6.60;;;4.57;;
3193;SDS011;1608;50.860;13.466;2022-12-07T12:35:39;5.90;;;3.73;;
3193;SDS011;1608;50.860;13.466;2022-12-07T12:38:26;7.40;;;4.47;;
3193;SDS011;1608;50.860;13.466;2022-12-07T12:40:58;9.67;;;4.77;;
3193;SDS011;1608;50.860;13.466;2022-12-07T12:43:45;5.57;;;4.27;;
3193;SDS011;1608;50.860;13.466;2022-12-07T12:58:40;6.70;;;5.97;;
3193;SDS011;1608;50.860;13.466;2022-12-07T13:04:24;8.50;;;3.80;;
3193;SDS011;1608;50.860;13.466;2022-12-07T13:07:10;5.83;;;4.30;;
3193;SDS011;1608;50.860;13.466;2022-12-07T13:09:39;6.20;;;3.63;;
3193;SDS011;1608;50.860;13.466;2022-12-07T13:12:12;4.80;;;4.40;;
3193;SDS011;1608;50.860;13.466;2022-12-07T13:14:54;7.40;;;4.57;;
3193;SDS011;1608;50.860;13.466;2022-12-07T13:20:45;5.03;;;3.77;;
3193;SDS011;1608;50.860;13.466;2022-12-07T13:23:16;6.60;;;3.30;;
3193;SDS011;1608;50.860;13.466;2022-12-07T13:25:49;5.57;;;3.27;;
3193;SDS011;1608;50.860;13.466;2022-12-07T13:28:21;5.37;;;3.43;;
3193;SDS011;1608;50.860;13.466;2022-12-07T13:31:03;6.07;;;3.23;;
3193;SDS011;1608;50.860;13.466;2022-12-07T13:33:50;7.63;;;4.30;;
3193;SDS011;1608;50.860;13.466;2022-12-07T13:36:19;7.13;;;3.80;;
3193;SDS011;1608;50.860;13.466;2022-12-07T13:38:50;13.20;;;5.80;;
3193;SDS011;1608;50.860;13.466;2022-12-07T13:41:20;7.23;;;4.17;;
3193;SDS011;1608;50.860;13.466;2022-12-07T13:43:49;6.60;;;3.90;;
3193;SDS011;1608;50.860;13.466;2022-12-07T13:46:19;5.90;;;3.90;;
3193;SDS011;1608;50.860;13.466;2022-12-07T13:48:52;6.10;;;3.47;;
3193;SDS011;1608;50.860;13.466;2022-12-07T13:51:21;8.27;;;3.90;;
3193;SDS011;1608;50.860;13.466;2022-12-07T13:54:08;4.77;;;3.07;;
3193;SDS011;1608;50.860;13.466;2022-12-07T13:56:37;6.33;;;3.60;;
3193;SDS011;1608;50.860;13.466;2022-12-07T13:59:05;4.60;;;3.47;;
3193;SDS011;1608;50.860;13.466;2022-12-07T14:01:37;5.00;;;3.60;;
3193;SDS011;1608;50.860;13.466;2022-12-07T14:04:16;5.77;;;3.50;;
3193;SDS011;1608;50.860;13.466;2022-12-07T14:06:56;6.90;;;3.93;;
3193;SDS011;1608;50.860;13.466;2022-12-07T14:09:26;5.53;;;3.40;;
3193;SDS011;1608;50.860;13.466;2022-12-07T14:11:54;6.50;;;3.30;;
3193;SDS011;1608;50.860;13.466;2022-12-07T14:14:22;7.30;;;3.93;;
3193;SDS011;1608;50.860;13.466;2022-12-07T14:16:55;9.60;;;3.90;;
3193;SDS011;1608;50.860;13.466;2022-12-07T14:19:47;5.33;;;3.63;;
3193;SDS011;1608;50.860;13.466;2022-12-07T14:22:19;4.60;;;3.10;;
3193;SDS011;1608;50.860;13.466;2022-12-07T14:24:57;10.47;;;3.63;;
3193;SDS011;1608;50.860;13.466;2022-12-07T14:27:30;5.07;;;2.90;;
3193;SDS011;1608;50.860;13.466;2022-12-07T14:29:58;6.27;;;5.30;;
3193;SDS011;1608;50.860;13.466;2022-12-07T14:32:26;8.53;;;4.80;;
3193;SDS011;1608;50.860;13.466;2022-12-07T14:34:58;10.20;;;4.23;;
3193;SDS011;1608;50.860;13.466;2022-12-07T14:37:27;6.93;;;3.73;;
3193;SDS011;1608;50.860;13.466;2022-12-07T14:39:56;6.73;;;3.70;;
3193;SDS011;1608;50.860;13.466;2022-12-07T14:42:24;6.97;;;4.27;;
3193;SDS011;1608;50.860;13.466;2022-12-07T14:44:53;7.30;;;3.80;;
3193;SDS011;1608;50.860;13.466;2022-12-07T14:47:20;5.70;;;4.00;;
3193;SDS011;1608;50.860;13.466;2022-12-07T14:49:47;8.37;;;4.53;;
3193;SDS011;1608;50.860;13.466;2022-12-07T14:52:15;7.73;;;4.83;;
3193;SDS011;1608;50.860;13.466;2022-12-07T14:54:45;4.40;;;3.47;;
3193;SDS011;1608;50.860;13.466;2022-12-07T14:57:13;6.60;;;3.90;;
3193;SDS011;1608;50.860;13.466;2022-12-07T14:59:40;9.77;;;4.30;;
3193;SDS011;1608;50.860;13.466;2022-12-07T15:02:08;9.57;;;6.67;;
3193;SDS011;1608;50.860;13.466;2022-12-07T15:04:36;6.10;;;3.53;;
3193;SDS011;1608;50.860;13.466;2022-12-07T15:07:03;11.27;;;3.80;;
3193;SDS011;1608;50.860;13.466;2022-12-07T15:09:31;5.20;;;3.07;;
3193;SDS011;1608;50.860;13.466;2022-12-07T15:11:58;6.73;;;3.70;;
3193;SDS011;1608;50.860;13.466;2022-12-07T15:14:26;3.80;;;3.03;;
3193;SDS011;1608;50.860;13.466;2022-12-07T15:16:53;5.00;;;3.37;;
3193;SDS011;1608;50.860;13.466;2022-12-07T15:19:20;4.50;;;3.17;;
3193;SDS011;1608;50.860;13.466;2022-12-07T15:21:50;6.37;;;3.80;;
3193;SDS011;1608;50.860;13.466;2022-12-07T15:24:18;8.23;;;2.90;;
3193;SDS011;1608;50.860;13.466;2022-12-07T15:26:44;4.97;;;2.90;;
3193;SDS011;1608;50.860;13.466;2022-12-07T15:29:12;9.40;;;3.43;;
3193;SDS011;1608;50.860;13.466;2022-12-07T15:31:41;3.80;;;3.17;;
3193;SDS011;1608;50.860;13.466;2022-12-07T15:34:08;5.67;;;2.97;;
3193;SDS011;1608;50.860;13.466;2022-12-07T15:36:35;7.57;;;2.47;;
3193;SDS011;1608;50.860;13.466;2022-12-07T15:39:02;5.90;;;2.80;;
3193;SDS011;1608;50.860;13.466;2022-12-07T15:41:29;6.47;;;3.10;;
3193;SDS011;1608;50.860;13.466;2022-12-07T15:43:56;4.70;;;3.17;;